首页
METAR-TAF:

METAR-TAF

机场 :

Ardmore Downtown Executive Airport

Ardmore, 奧克拉荷馬州, 美国

纬度: 34-08-49N, 经度: 097-07-21W, 海拔: 257米

当前天气观测

该预报发布于27分钟前的20:35 UTC
风速9节,风向东南
温度 33°C
湿度 46%
气压 1012 hPa
能見度: 11.3公里
天空无云

METAR: K1F0 152035Z AUTO 14009KT 7SM HZ CLR 33/20 A2989 RMK AO2 T03250196

时间: 16:02 (21:02 UTC)


TAF: 丢失

超过4000个机场的气象观测和天气预报(METAR&TAF报告)。

可查询的气象台以黄色和红色小点在地图上表示。

将鼠标移到小点上方,可查看气象台名称。

然后点击查看天气观测和预报。

如需切换地图:点击带黑十字的绿色按钮放大地图;点击带横线的绿色按钮缩小地图;或者点击绿色箭头查看邻近地区的地图。


METAR-TAF: